Time;durP1;ratioP1;P1;durP2;ratioP2;P2;SDS_P1;SDS_P2;PMS_P1;PMS_P2;Temp;Humidity;BMP_temperature;BMP_pressure;BME280_temperature;BME280_humidity;BME280_pressure;Samples;Min_cycle;Max_cycle;Signal;HPM_P1;HPM_P2
2022/09/07 05:42:49;;;;;;;4.05;3.05;;;;;;;9.40;68.84;98859.88;5166219;23;20064;-61
2022/09/07 05:45:15;;;;;;;4.05;3.30;;;;;;;9.51;68.66;98865.06;4925936;29;20060;-59
2022/09/07 05:47:41;;;;;;;4.13;3.28;;;;;;;9.84;67.88;98873.97;4896758;29;20063;-62
2022/09/07 05:50:08;;;;;;;4.68;3.10;;;;;;;9.88;67.32;98869.81;4896603;29;20045;-62
2022/09/07 05:52:34;;;;;;;3.88;2.90;;;;;;;9.89;67.61;98862.66;4896445;29;20506;-60
2022/09/07 05:55:00;;;;;;;3.65;3.28;;;;;;;9.98;67.29;98861.19;4895307;29;20048;-62
2022/09/07 05:57:26;;;;;;;4.57;3.20;;;;;;;10.12;67.04;98865.06;4896602;29;20570;-65
2022/09/07 05:59:52;;;;;;;4.30;3.15;;;;;;;10.15;66.35;98861.13;4896012;29;20052;-62
2022/09/07 06:02:17;;;;;;;11.15;3.58;;;;;;;10.18;65.67;98858.78;4893800;29;20045;-60
2022/09/07 06:04:43;;;;;;;3.40;3.00;;;;;;;10.13;66.18;98861.38;4878438;29;20089;-61
2022/09/07 06:07:12;;;;;;;3.97;3.05;;;;;;;10.15;65.95;98864.56;4892719;29;20060;-61
2022/09/07 06:09:39;;;;;;;4.57;3.72;;;;;;;10.45;65.93;98845.59;4892263;29;20355;-61
2022/09/07 06:12:05;;;;;;;5.63;3.40;;;;;;;10.81;65.14;98855.72;4908019;29;20079;-61
2022/09/07 06:14:32;;;;;;;3.22;2.78;;;;;;;11.05;63.56;98853.53;4894550;29;20072;-61
2022/09/07 06:16:57;;;;;;;5.07;3.30;;;;;;;11.44;62.80;98850.63;4896284;29;20048;-64
2022/09/07 06:19:23;;;;;;;8.35;3.47;;;;;;;11.50;62.38;98845.13;4894287;29;20041;-62
2022/09/07 06:21:49;;;;;;;3.92;2.88;;;;;;;11.65;61.87;98852.38;4909791;29;20060;-61
2022/09/07 06:24:14;;;;;;;3.63;2.90;;;;;;;11.36;61.41;98844.75;4894403;29;20041;-62
2022/09/07 06:26:40;;;;;;;7.63;3.03;;;;;;;11.37;61.50;98843.69;4895796;29;20521;-62
2022/09/07 06:29:07;;;;;;;3.75;2.85;;;;;;;11.33;61.93;98836.50;4888715;29;20428;-62
2022/09/07 06:31:33;;;;;;;4.38;3.22;;;;;;;11.20;62.03;98837.75;4890029;29;20045;-61
2022/09/07 06:33:59;;;;;;;4.78;2.63;;;;;;;11.09;63.21;98831.56;4879262;29;20049;-62
2022/09/07 06:36:26;;;;;;;4.03;2.67;;;;;;;11.11;63.43;98836.63;4893876;29;20506;-61
2022/09/07 06:38:54;;;;;;;4.10;2.80;;;;;;;11.19;62.69;98844.09;4894256;29;20514;-63
2022/09/07 06:41:21;;;;;;;4.82;3.10;;;;;;;11.22;62.71;98837.50;4894537;29;20055;-60
2022/09/07 06:43:48;;;;;;;4.50;3.00;;;;;;;11.10;62.75;98816.47;4895203;29;20475;-60
2022/09/07 06:46:14;;;;;;;5.63;3.20;;;;;;;11.22;62.89;98840.16;4878225;29;20056;-61
2022/09/07 06:48:40;;;;;;;3.95;3.22;;;;;;;11.32;62.91;98845.50;4894719;29;20101;-63
2022/09/07 06:51:08;;;;;;;4.85;3.03;;;;;;;11.51;62.39;98844.06;4892959;29;20085;-63
2022/09/07 06:53:35;;;;;;;3.88;2.72;;;;;;;11.59;61.66;98843.56;4892037;29;20422;-62
2022/09/07 06:56:04;;;;;;;5.22;2.78;;;;;;;11.60;60.80;98839.84;4877323;29;20076;-61
2022/09/07 06:58:30;;;;;;;4.53;2.70;;;;;;;11.67;60.72;98841.47;4894286;29;20044;-61
2022/09/07 07:00:56;;;;;;;4.57;2.70;;;;;;;11.80;59.88;98830.41;4877718;29;20048;-61
2022/09/07 07:03:21;;;;;;;3.75;2.75;;;;;;;11.74;59.78;98839.41;4893610;29;20578;-62
2022/09/07 07:05:55;;;;;;;3.30;2.83;;;;;;;11.56;59.67;98840.66;4894925;29;20088;-61
2022/09/07 07:08:22;;;;;;;2.85;2.58;;;;;;;11.54;60.27;98832.94;4894561;29;20047;-62
2022/09/07 07:10:48;;;;;;;4.68;2.35;;;;;;;11.62;60.06;98829.00;4894126;29;20528;-62
2022/09/07 07:13:14;;;;;;;4.03;2.47;;;;;;;11.76;59.57;98832.75;4896044;29;20040;-61
2022/09/07 07:15:40;;;;;;;6.75;2.45;;;;;;;11.78;59.15;98827.19;4897911;29;20096;-62
2022/09/07 07:18:06;;;;;;;4.13;2.55;;;;;;;11.82;58.42;98828.28;4895950;29;20542;-61
2022/09/07 07:20:34;;;;;;;2.88;2.58;;;;;;;11.71;57.77;98824.78;4898523;29;20044;-62
2022/09/07 07:23:00;;;;;;;2.63;2.42;;;;;;;11.73;57.86;98829.81;4898148;29;20132;-61
2022/09/07 07:25:26;;;;;;;2.45;2.25;;;;;;;11.83;58.00;98830.69;4898217;29;20188;-62
2022/09/07 07:27:51;;;;;;;4.40;2.70;;;;;;;11.94;57.42;98823.59;4897716;29;20063;-62
2022/09/07 07:30:18;;;;;;;3.85;2.35;;;;;;;12.15;56.15;98829.78;4896864;29;20047;-62
2022/09/07 07:32:44;;;;;;;2.80;2.40;;;;;;;12.29;55.29;98824.75;4898135;29;20197;-63
2022/09/07 07:35:11;;;;;;;2.65;2.40;;;;;;;12.36;55.39;98832.50;4896028;29;20157;-63
2022/09/07 07:37:37;;;;;;;2.70;2.50;;;;;;;12.40;55.48;98837.00;4896015;29;20506;-62
2022/09/07 07:40:04;;;;;;;2.85;2.60;;;;;;;12.51;54.81;98827.19;4896797;29;20525;-63
2022/09/07 07:42:31;;;;;;;2.55;2.25;;;;;;;12.50;54.37;98823.75;4895789;29;20052;-62
2022/09/07 07:44:57;;;;;;;3.13;2.15;;;;;;;12.41;54.68;98821.84;4897018;29;20047;-62
2022/09/07 07:47:22;;;;;;;4.25;2.47;;;;;;;12.30;54.95;98822.91;4897564;29;20044;-63
2022/09/07 07:49:48;;;;;;;2.67;2.10;;;;;;;12.30;55.14;98823.72;4876392;29;20056;-65
2022/09/07 07:52:15;;;;;;;2.72;2.40;;;;;;;12.43;55.39;98814.41;4879076;29;20045;-62
2022/09/07 07:54:44;;;;;;;2.30;2.10;;;;;;;12.53;54.33;98806.47;4897649;29;20139;-63
2022/09/07 07:57:09;;;;;;;2.40;2.15;;;;;;;12.63;54.81;98806.47;4896901;29;20060;-63
2022/09/07 07:59:35;;;;;;;3.42;2.22;;;;;;;12.71;54.26;98811.28;4896953;29;20044;-63
2022/09/07 08:02:03;;;;;;;2.88;2.20;;;;;;;12.86;53.18;98809.69;4895632;29;20052;-62
2022/09/07 08:04:35;;;;;;;4.03;2.40;;;;;;;12.99;52.98;98816.31;4897936;29;20040;-65
2022/09/07 08:07:02;;;;;;;3.97;2.45;;;;;;;13.09;52.29;98806.47;4896954;29;20071;-63
2022/09/07 08:09:27;;;;;;;3.55;2.40;;;;;;;13.10;52.23;98809.94;4879838;29;20044;-67
2022/09/07 08:11:54;;;;;;;2.38;2.17;;;;;;;13.23;52.18;98805.91;4897413;29;20060;-65
2022/09/07 08:14:20;;;;;;;5.18;2.20;;;;;;;13.48;51.56;98800.59;4887190;29;20047;-63
2022/09/07 08:16:46;;;;;;;4.13;2.85;;;;;;;13.53;51.46;98805.91;4887607;29;20073;-62
2022/09/07 08:19:12;;;;;;;3.42;2.25;;;;;;;13.53;51.52;98797.91;4876080;29;20140;-64
2022/09/07 08:21:37;;;;;;;2.92;2.45;;;;;;;13.53;51.59;98797.09;4890112;29;20040;-63
2022/09/07 08:24:03;;;;;;;5.05;2.67;;;;;;;13.58;51.54;98789.09;4883238;29;20049;-63
2022/09/07 08:26:29;;;;;;;4.50;2.20;;;;;;;13.74;51.04;98795.19;4894584;29;20752;-70
2022/09/07 08:28:55;;;;;;;10.25;3.10;;;;;;;13.83;50.56;98783.69;4863047;29;20044;-64
2022/09/07 08:31:22;;;;;;;8.85;2.88;;;;;;;13.93;49.35;98782.84;4895448;29;20057;-62
2022/09/07 08:33:47;;;;;;;5.30;2.28;;;;;;;13.97;49.22;98778.56;4896533;29;20522;-62
2022/09/07 08:36:16;;;;;;;2.50;2.00;;;;;;;14.19;49.20;98770.16;4895765;29;20093;-63
2022/09/07 08:38:42;;;;;;;3.33;2.10;;;;;;;14.25;48.09;98773.59;4894504;29;20043;-63
2022/09/07 08:41:27;;;;;;;2.20;2.00;;;;;;;14.50;47.67;98781.44;4897124;29;20045;-63
2022/09/07 08:43:58;;;;;;;9.18;2.10;;;;;;;14.62;47.09;98773.13;4895658;29;20059;-62
2022/09/07 08:46:42;;;;;;;2.53;2.05;;;;;;;14.71;46.24;98771.44;4895276;29;20173;-63
2022/09/07 08:49:15;;;;;;;2.53;2.03;;;;;;;14.62;46.24;98767.78;4896678;29;20120;-62
2022/09/07 08:51:41;;;;;;;2.30;2.10;;;;;;;14.55;46.26;98780.63;4895002;29;20119;-63
2022/09/07 08:54:12;;;;;;;5.50;1.92;;;;;;;14.45;46.04;98776.13;4897101;29;20044;-64
2022/09/07 08:56:42;;;;;;;2.40;2.17;;;;;;;14.29;46.01;98772.78;4895024;29;20048;-62
2022/09/07 08:59:34;;;;;;;3.63;1.95;;;;;;;14.19;45.93;98783.50;4897417;29;20090;-63
2022/09/07 09:02:00;;;;;;;5.28;1.85;;;;;;;14.25;46.06;98777.06;4895655;29;20040;-63
2022/09/07 09:04:28;;;;;;;4.63;2.03;;;;;;;14.38;45.57;98774.84;4895458;29;20055;-63
2022/09/07 09:07:04;;;;;;;3.03;2.33;;;;;;;14.42;45.30;98781.22;4894555;29;20052;-62
2022/09/07 09:09:50;;;;;;;2.60;1.83;;;;;;;14.43;44.88;98777.47;4895225;29;20112;-63
2022/09/07 09:12:35;;;;;;;2.40;2.00;;;;;;;14.53;45.13;98762.25;4879073;29;20059;-63
2022/09/07 09:15:25;;;;;;;2.10;1.90;;;;;;;14.51;45.03;98767.06;4896615;29;20410;-63
2022/09/07 09:18:09;;;;;;;3.28;2.13;;;;;;;14.49;44.69;98766.50;4896652;29;20197;-61
2022/09/07 09:20:43;;;;;;;2.25;1.77;;;;;;;14.36;44.18;98779.69;4893919;29;20108;-61
2022/09/07 09:23:11;;;;;;;3.80;2.17;;;;;;;14.41;44.15;98768.97;4895064;29;20040;-64
2022/09/07 09:25:39;;;;;;;2.90;2.20;;;;;;;14.56;43.46;98760.09;4894781;29;20060;-64
2022/09/07 09:28:10;;;;;;;1.92;1.70;;;;;;;14.46;43.20;98769.72;4877289;29;20071;-63
2022/09/07 09:30:35;;;;;;;;;;;;;;;14.48;42.85;98764.13;4894963;29;20048;-63
2022/09/07 09:33:22;;;;;;;3.95;1.95;;;;;;;14.38;44.15;98769.50;4894971;29;20021;-63
2022/09/07 09:35:49;;;;;;;2.72;1.95;;;;;;;14.24;45.68;98766.69;4892989;29;20051;-62
2022/09/07 09:38:42;;;;;;;3.47;1.75;;;;;;;13.82;47.80;98779.44;4894824;29;20056;-62
2022/09/07 09:41:11;;;;;;;3.47;1.90;;;;;;;13.57;49.46;98771.53;4895955;29;20554;-63
2022/09/07 09:43:57;;;;;;;1.90;1.80;;;;;;;13.45;50.22;98771.03;4894701;29;20108;-63
2022/09/07 09:46:32;;;;;;;2.38;1.77;;;;;;;13.51;49.95;98780.59;4893892;29;20494;-66
2022/09/07 09:49:05;;;;;;;1.98;1.88;;;;;;;13.29;50.50;98778.25;4895460;29;20041;-62
2022/09/07 09:51:33;;;;;;;3.83;1.92;;;;;;;13.30;50.88;98775.34;4894547;29;20139;-62
2022/09/07 09:54:04;;;;;;;2.03;1.80;;;;;;;13.39;51.40;98786.22;4895719;29;20414;-62
2022/09/07 09:56:44;;;;;;;4.05;2.03;;;;;;;13.51;50.48;98781.41;4893952;29;20107;-64
2022/09/07 09:59:18;;;;;;;2.10;1.90;;;;;;;13.78;49.47;98786.34;4895743;29;20459;-62
2022/09/07 10:01:45;;;;;;;3.83;2.20;;;;;;;13.66;50.05;98787.75;4895387;29;20056;-64
2022/09/07 10:04:31;;;;;;;2.53;1.80;;;;;;;13.55;50.68;98784.31;4895968;29;20048;-64
2022/09/07 10:07:04;;;;;;;2.70;1.70;;;;;;;13.35;51.54;98787.81;4895273;29;20059;-65
2022/09/07 10:09:38;;;;;;;3.25;1.80;;;;;;;13.18;51.72;98786.25;4893576;29;20112;-64
2022/09/07 10:12:05;;;;;;;2.65;1.70;;;;;;;13.00;52.96;98789.47;4895045;29;20072;-63
2022/09/07 10:14:32;;;;;;;2.33;1.65;;;;;;;12.92;53.32;98782.03;4896345;29;20124;-63
2022/09/07 10:16:59;;;;;;;1.58;1.48;;;;;;;12.96;53.75;98794.50;4895826;29;20052;-62
2022/09/07 10:19:33;;;;;;;3.40;1.60;;;;;;;12.98;53.71;98788.13;4894275;29;20467;-65
2022/09/07 10:22:19;;;;;;;3.08;1.80;;;;;;;12.98;53.95;98786.28;4874999;29;20375;-62
2022/09/07 10:24:45;;;;;;;2.60;1.50;;;;;;;12.98;54.78;98788.94;4892207;29;20507;-64
2022/09/07 10:27:29;;;;;;;1.80;1.60;;;;;;;12.96;55.82;98781.19;4889167;29;20048;-61
2022/09/07 10:29:55;;;;;;;1.80;1.65;;;;;;;12.91;54.89;98786.53;4874730;29;20057;-65
2022/09/07 10:32:41;;;;;;;1.60;1.50;;;;;;;12.78;55.45;98779.09;4874915;29;20049;-66
2022/09/07 10:35:16;;;;;;;1.73;1.50;;;;;;;12.43;56.55;98783.31;4875181;29;20093;-64
2022/09/07 10:37:48;;;;;;;4.13;1.48;;;;;;;12.35;57.33;98789.16;4859703;29;20077;-63
2022/09/07 10:40:24;;;;;;;1.77;1.40;;;;;;;12.31;57.95;98793.41;4885019;29;20074;-64
2022/09/07 10:43:12;;;;;;;2.00;1.80;;;;;;;12.33;58.31;98795.81;4885511;29;20061;-63
2022/09/07 10:45:57;;;;;;;3.92;1.40;;;;;;;12.26;58.18;98788.06;4876746;29;20053;-65
2022/09/07 10:48:47;;;;;;;2.33;1.73;;;;;;;12.21;60.21;98793.41;4865999;29;20139;-64
2022/09/07 10:51:17;;;;;;;2.25;1.58;;;;;;;12.09;60.09;98798.94;4895338;29;20060;-66
2022/09/07 10:54:12;;;;;;;2.63;2.03;;;;;;;11.91;61.85;98789.59;4897391;29;20044;-66
2022/09/07 10:56:44;;;;;;;3.22;1.90;;;;;;;11.87;63.45;98785.06;4880891;29;20052;-66
2022/09/07 10:59:34;;;;;;;2.00;1.80;;;;;;;11.86;65.11;98786.13;4888951;29;20042;-66
2022/09/07 11:02:20;;;;;;;2.38;1.80;;;;;;;11.80;66.44;98790.56;4887455;29;20056;-66
2022/09/07 11:04:48;;;;;;;5.32;2.10;;;;;;;11.74;66.90;98789.75;4879308;29;20049;-66
2022/09/07 11:07:33;;;;;;;3.17;2.13;;;;;;;11.70;66.38;98796.63;4878997;29;20155;-66
2022/09/07 11:10:21;;;;;;;3.35;1.90;;;;;;;11.66;67.89;98784.13;4880289;29;20049;-65
2022/09/07 11:12:49;;;;;;;5.25;2.40;;;;;;;11.50;69.31;98788.56;4861227;29;20057;-66
2022/09/07 11:15:20;;;;;;;3.50;1.90;;;;;;;11.40;68.81;98784.00;4888085;29;20044;-66
2022/09/07 11:17:59;;;;;;;2.78;2.25;;;;;;;11.24;67.46;98785.00;4882204;29;20060;-67
2022/09/07 11:20:43;;;;;;;2.13;1.92;;;;;;;11.46;70.24;98784.84;4897737;29;20093;-66
2022/09/07 11:23:24;;;;;;;4.30;2.30;;;;;;;11.66;68.38;98776.97;4881400;29;20048;-65
2022/09/07 11:26:06;;;;;;;5.03;2.15;;;;;;;11.85;68.57;98777.31;4897364;29;20049;-65
2022/09/07 11:28:42;;;;;;;4.50;3.20;;;;;;;11.86;66.61;98768.31;4897441;29;20135;-65
2022/09/07 11:31:19;;;;;;;2.58;2.25;;;;;;;12.03;68.59;98773.44;4896028;29;20056;-65
2022/09/07 11:33:56;;;;;;;2.40;2.20;;;;;;;12.17;66.77;98773.72;4895778;29;20506;-66
2022/09/07 11:36:24;;;;;;;2.50;2.10;;;;;;;12.13;65.15;98767.34;4879206;29;20060;-66
2022/09/07 11:42:41;;;;;;;4.15;2.55;;;;;;;11.96;66.46;98770.19;4878336;29;20067;-65
2022/09/07 11:45:28;;;;;;;4.15;2.10;;;;;;;11.89;66.89;98773.13;4878818;29;20511;-66
2022/09/07 11:48:09;;;;;;;3.55;2.13;;;;;;;11.78;67.97;98766.13;4895938;29;20071;-65
2022/09/07 11:50:38;;;;;;;2.63;2.17;;;;;;;11.64;67.18;98765.00;4897096;29;20052;-67
2022/09/07 11:53:13;;;;;;;4.60;1.92;;;;;;;11.59;65.28;98768.47;4896282;29;20046;-65
2022/09/07 11:55:44;;;;;;;2.85;2.35;;;;;;;11.49;66.68;98765.75;4896648;29;20047;-65
2022/09/07 11:58:32;;;;;;;6.95;2.70;;;;;;;11.48;67.30;98759.63;4883490;29;20052;-65
2022/09/07 12:01:25;;;;;;;4.03;2.00;;;;;;;11.49;67.50;98757.78;4896200;29;20055;-65
2022/09/07 12:03:51;;;;;;;3.40;2.17;;;;;;;11.41;66.10;98759.06;4897808;29;20419;-65
2022/09/07 12:06:41;;;;;;;2.30;2.10;;;;;;;11.31;67.71;98751.06;4896772;29;20052;-64
2022/09/07 12:09:26;;;;;;;3.53;2.20;;;;;;;11.13;66.87;98761.03;4896221;29;20521;-65
2022/09/07 12:12:15;;;;;;;2.42;2.10;;;;;;;11.14;68.19;98759.19;4896325;29;20052;-64
2022/09/07 12:15:18;;;;;;;3.90;2.20;;;;;;;11.06;68.04;98757.00;4897552;29;20100;-64
2022/09/07 12:18:07;;;;;;;4.38;2.20;;;;;;;11.07;68.28;98748.00;4897972;29;20060;-64
2022/09/07 12:20:41;;;;;;;2.08;1.80;;;;;;;11.08;68.53;98746.94;4877999;29;20060;-65
2022/09/07 12:23:16;;;;;;;2.10;1.90;;;;;;;11.01;68.67;98749.81;4895731;29;20044;-67
2022/09/07 12:25:43;;;;;;;2.55;2.00;;;;;;;11.06;67.92;98746.38;4896458;29;20732;-66
2022/09/07 12:28:22;;;;;;;2.75;1.90;;;;;;;10.81;67.22;98739.88;4895277;29;20048;-66
2022/09/07 12:30:59;;;;;;;2.40;2.03;;;;;;;10.76;69.01;98745.13;4894703;29;20053;-64
2022/09/07 12:33:36;;;;;;;2.30;1.88;;;;;;;10.77;70.19;98741.44;4850735;29;20040;-65
2022/09/07 12:36:24;;;;;;;3.28;2.10;;;;;;;10.83;70.09;98740.44;4895462;29;20207;-66
2022/09/07 12:39:27;;;;;;;4.13;2.88;;;;;;;10.79;69.86;98741.97;4897658;29;20191;-66
2022/09/07 12:42:04;;;;;;;4.80;3.08;;;;;;;10.79;71.54;98738.53;4897170;29;20048;-65
2022/09/07 12:44:31;;;;;;;4.80;3.08;;;;;;;10.71;71.82;98731.84;4895709;29;20060;-64
2022/09/07 12:47:02;;;;;;;7.07;4.65;;;;;;;10.78;72.99;98731.63;4879470;29;20541;-65
2022/09/07 12:49:38;;;;;;;3.83;3.10;;;;;;;10.75;73.94;98734.78;4896006;29;20040;-64
2022/09/07 12:52:28;;;;;;;6.93;3.78;;;;;;;10.69;75.52;98726.81;4894355;29;20052;-64
2022/09/07 12:55:09;;;;;;;4.90;3.13;;;;;;;10.66;73.46;98739.75;4896245;29;20051;-65
2022/09/07 12:57:57;;;;;;;5.75;3.05;;;;;;;10.64;75.16;98736.56;4896353;29;20547;-64
2022/09/07 13:00:36;;;;;;;5.03;3.17;;;;;;;10.66;75.12;98729.16;4894917;29;20044;-64
2022/09/07 13:03:39;;;;;;;4.43;3.50;;;;;;;10.63;74.77;98727.03;4878958;29;20045;-64
2022/09/07 13:06:28;;;;;;;4.25;3.33;;;;;;;10.61;74.49;98731.75;4894920;29;20413;-64
2022/09/07 13:09:14;;;;;;;4.50;3.28;;;;;;;10.64;74.90;98723.31;4875296;29;20366;-63
2022/09/07 13:11:39;;;;;;;5.35;3.55;;;;;;;10.62;74.54;98722.78;4896126;29;20045;-64
2022/09/07 13:14:14;;;;;;;5.72;3.40;;;;;;;10.60;75.58;98720.38;4895801;29;20525;-64
2022/09/07 13:16:41;;;;;;;5.00;3.70;;;;;;;10.60;75.62;98717.72;4896263;29;20418;-65
2022/09/07 13:19:13;;;;;;;4.65;3.67;;;;;;;10.56;74.94;98719.28;4893840;29;20059;-65
2022/09/07 13:21:47;;;;;;;6.03;3.90;;;;;;;10.55;75.47;98716.88;4896648;29;20052;-64
2022/09/07 13:24:16;;;;;;;6.18;3.70;;;;;;;10.52;75.97;98717.38;4896399;29;20073;-65
2022/09/07 13:27:07;;;;;;;5.03;3.67;;;;;;;10.56;76.59;98711.34;4895475;29;20462;-64
2022/09/07 13:29:39;;;;;;;4.72;3.20;;;;;;;10.63;76.74;98716.41;4894942;29;20048;-64
2022/09/07 13:32:30;;;;;;;4.10;3.05;;;;;;;10.64;76.05;98710.84;4895325;29;20060;-63
2022/09/07 13:34:56;;;;;;;4.57;3.20;;;;;;;10.53;75.14;98711.03;4895879;29;20051;-63
2022/09/07 13:37:22;;;;;;;3.30;2.70;;;;;;;10.56;76.13;98715.81;4878995;29;20061;-65
2022/09/07 13:39:51;;;;;;;3.17;2.75;;;;;;;10.47;75.94;98718.16;4864128;29;20076;-64
2022/09/07 13:42:32;;;;;;;4.68;3.33;;;;;;;10.57;77.06;98714.78;4895302;29;20391;-64
2022/09/07 13:45:00;;;;;;;3.28;2.78;;;;;;;10.61;76.25;98718.50;4895253;29;20048;-63
2022/09/07 13:47:53;;;;;;;4.30;3.05;;;;;;;10.60;75.89;98711.63;4892562;29;20075;-61
2022/09/07 13:50:25;;;;;;;4.07;2.78;;;;;;;10.59;76.79;98705.53;4894834;29;20052;-63
2022/09/07 13:52:51;;;;;;;3.45;2.83;;;;;;;10.61;76.18;98715.88;4876449;29;20143;-63
2022/09/07 13:55:44;;;;;;;3.95;2.83;;;;;;;10.56;75.70;98711.34;4889584;29;20092;-64
2022/09/07 13:58:15;;;;;;;4.70;2.80;;;;;;;10.60;75.54;98707.13;4864741;29;20070;-66
2022/09/07 14:00:59;;;;;;;3.83;2.60;;;;;;;10.51;76.69;98708.66;4893386;29;20415;-65
2022/09/07 14:03:36;;;;;;;4.40;2.97;;;;;;;10.45;76.75;98714.97;4892711;29;20195;-64
2022/09/07 14:06:24;;;;;;;4.28;2.67;;;;;;;10.44;77.39;98711.50;4874513;29;20208;-64
2022/09/07 14:08:53;;;;;;;4.70;2.25;;;;;;;10.38;77.55;98709.06;4874022;29;20390;-67
2022/09/07 14:11:27;;;;;;;3.03;2.58;;;;;;;10.28;77.36;98712.41;4875403;29;20073;-66
2022/09/07 14:14:17;;;;;;;2.95;2.45;;;;;;;10.36;78.05;98719.13;4889604;29;20502;-64
2022/09/07 14:16:49;;;;;;;4.15;2.22;;;;;;;10.31;77.25;98717.22;4893907;29;20053;-66
2022/09/07 14:19:28;;;;;;;3.85;2.40;;;;;;;10.31;77.76;98711.13;4857369;29;20055;-64
2022/09/07 14:22:02;;;;;;;4.05;2.33;;;;;;;10.34;77.87;98710.63;4897155;29;20139;-66
2022/09/07 14:24:31;;;;;;;2.88;2.40;;;;;;;10.33;77.68;98707.19;4896932;29;20549;-65
2022/09/07 14:26:57;;;;;;;3.58;2.38;;;;;;;10.40;77.86;98713.06;4899250;29;20056;-63
2022/09/07 14:29:30;;;;;;;2.55;2.15;;;;;;;10.48;77.24;98718.97;4897038;29;20135;-64
2022/09/07 14:31:57;;;;;;;3.45;1.85;;;;;;;10.54;76.00;98705.50;4897146;29;20055;-63
2022/09/07 14:34:26;;;;;;;2.00;1.80;;;;;;;10.53;75.34;98709.19;4898882;29;20450;-63
2022/09/07 14:36:55;;;;;;;2.00;1.80;;;;;;;10.54;75.37;98710.78;4881373;29;20049;-62
2022/09/07 14:39:21;;;;;;;3.10;1.75;;;;;;;10.48;75.93;98714.44;4881194;29;20045;-63
2022/09/07 14:41:47;;;;;;;2.00;1.75;;;;;;;10.55;76.37;98715.03;4888547;29;20052;-64
2022/09/07 14:44:35;;;;;;;1.90;1.80;;;;;;;10.60;76.01;98717.72;4882952;29;20053;-63
2022/09/07 14:47:26;;;;;;;3.25;2.30;;;;;;;10.60;75.85;98714.28;4899527;29;20095;-64
2022/09/07 14:49:55;;;;;;;3.45;2.15;;;;;;;10.59;75.59;98716.13;4877875;29;20045;-62
2022/09/07 14:52:30;;;;;;;3.58;2.92;;;;;;;10.65;76.31;98717.78;4848127;29;20045;-64
2022/09/07 14:54:56;;;;;;;5.78;2.60;;;;;;;10.65;76.17;98715.13;4863463;29;20131;-63
2022/09/07 14:57:21;;;;;;;3.80;2.40;;;;;;;10.68;75.93;98716.47;4865180;29;20155;-64
2022/09/07 14:59:47;;;;;;;2.50;2.30;;;;;;;10.61;75.75;98718.50;4898709;29;20135;-63
2022/09/07 15:02:25;;;;;;;4.60;2.33;;;;;;;10.42;74.46;98724.22;4896794;29;20131;-64
2022/09/07 15:05:13;;;;;;;2.50;2.30;;;;;;;10.42;75.49;98726.84;4899163;29;20451;-67
2022/09/07 15:07:47;;;;;;;2.63;1.95;;;;;;;10.26;75.91;98725.09;4897081;29;20049;-64
2022/09/07 15:10:20;;;;;;;2.63;2.10;;;;;;;10.26;75.26;98722.44;4897456;29;20032;-61
2022/09/07 15:12:52;;;;;;;3.55;2.40;;;;;;;10.32;76.68;98723.31;4896602;29;20104;-63
2022/09/07 15:15:17;;;;;;;2.75;2.42;;;;;;;10.35;75.61;98723.63;4897467;29;20070;-64
2022/09/07 15:17:43;;;;;;;4.43;2.35;;;;;;;10.34;74.94;98734.47;4898850;29;20048;-68
2022/09/07 15:20:35;;;;;;;3.95;2.65;;;;;;;10.31;75.29;98724.38;4896379;29;20063;-64
2022/09/07 15:23:12;;;;;;;2.80;2.50;;;;;;;10.26;75.74;98734.88;4895443;29;20060;-63
2022/09/07 15:25:39;;;;;;;5.88;2.45;;;;;;;10.13;75.10;98734.25;4895941;29;20080;-62
2022/09/07 15:28:05;;;;;;;3.92;3.03;;;;;;;10.06;75.20;98728.34;4898162;29;20048;-63
2022/09/07 15:30:31;;;;;;;3.05;2.40;;;;;;;10.05;75.27;98729.38;4880663;29;20054;-63
2022/09/07 15:32:57;;;;;;;5.25;3.83;;;;;;;10.12;75.56;98729.22;4896837;29;20056;-62
2022/09/07 15:35:23;;;;;;;6.47;4.13;;;;;;;10.04;75.52;98733.09;4898790;29;20036;-64
2022/09/07 15:37:49;;;;;;;6.57;3.17;;;;;;;10.05;76.08;98729.38;4897387;29;20052;-62
2022/09/07 15:40:20;;;;;;;3.78;2.65;;;;;;;9.95;76.49;98724.00;4898093;29;20048;-63
2022/09/07 15:42:46;;;;;;;5.13;2.88;;;;;;;9.97;75.64;98727.19;4895819;29;20184;-63
2022/09/07 15:45:12;;;;;;;4.82;3.00;;;;;;;9.98;76.99;98740.19;4897755;29;20052;-63
2022/09/07 15:47:37;;;;;;;4.53;2.67;;;;;;;10.02;76.31;98732.53;4896148;29;20422;-62
2022/09/07 15:50:05;;;;;;;5.70;2.92;;;;;;;10.03;76.66;98728.84;4897869;29;20055;-63
2022/09/07 15:52:32;;;;;;;3.70;2.60;;;;;;;9.97;75.98;98735.13;4897178;29;20511;-63
2022/09/07 15:54:58;;;;;;;3.33;2.60;;;;;;;9.89;76.54;98728.44;4897678;29;20051;-61
2022/09/07 15:57:24;;;;;;;3.30;2.28;;;;;;;9.87;77.45;98740.31;4881373;29;20049;-64
2022/09/07 15:59:50;;;;;;;3.38;2.70;;;;;;;9.86;76.17;98742.19;4879514;29;20041;-64
2022/09/07 16:02:16;;;;;;;3.08;2.50;;;;;;;9.85;77.20;98742.41;4877834;29;20060;-69
2022/09/07 16:04:42;;;;;;;3.50;2.40;;;;;;;9.80;76.86;98737.09;4895491;29;20410;-62
2022/09/07 16:07:07;;;;;;;3.28;2.97;;;;;;;9.78;77.14;98739.97;4896878;29;20619;-67
2022/09/07 16:09:34;;;;;;;3.45;2.63;;;;;;;9.79;76.88;98746.84;4891918;29;20064;-66
2022/09/07 16:12:01;;;;;;;4.18;2.67;;;;;;;9.80;76.76;98756.41;4894916;29;20048;-68
2022/09/07 16:14:27;;;;;;;3.40;3.00;;;;;;;9.81;76.91;98750.06;4878339;29;20091;-64
2022/09/07 16:16:53;;;;;;;5.43;3.50;;;;;;;9.78;77.55;98756.63;4893742;29;20048;-64
2022/09/07 16:19:19;;;;;;;4.95;3.50;;;;;;;9.82;77.51;98759.59;4895460;29;20118;-64
2022/09/07 16:21:45;;;;;;;4.40;3.08;;;;;;;9.86;77.17;98760.72;4895959;29;20087;-64
2022/09/07 16:24:10;;;;;;;5.95;3.10;;;;;;;9.89;77.30;98760.22;4894393;29;20055;-64
2022/09/07 16:26:36;;;;;;;4.30;3.30;;;;;;;9.88;77.32;98760.44;4895710;29;20050;-65
2022/09/07 16:29:02;;;;;;;4.53;3.15;;;;;;;9.89;77.64;98759.41;4894668;29;20057;-67
2022/09/07 16:31:29;;;;;;;5.47;3.70;;;;;;;9.88;77.65;98766.56;4894840;29;20160;-65
2022/09/07 16:33:55;;;;;;;4.57;3.60;;;;;;;9.81;77.88;98763.28;4862376;29;20040;-65
2022/09/07 16:36:24;;;;;;;4.15;3.15;;;;;;;9.85;77.97;98776.81;4895185;29;20052;-65
2022/09/07 16:38:54;;;;;;;6.03;3.63;;;;;;;9.86;78.40;98789.03;4894234;29;20468;-62
2022/09/07 16:41:26;;;;;;;4.03;3.20;;;;;;;9.82;78.15;98772.81;4894382;29;20048;-64
2022/09/07 16:43:52;;;;;;;5.15;3.00;;;;;;;9.68;78.96;98780.34;4892672;29;20087;-65
2022/09/07 16:46:20;;;;;;;3.47;2.63;;;;;;;9.53;78.61;98786.25;4893386;29;20056;-65
2022/09/07 16:48:46;;;;;;;5.63;2.97;;;;;;;9.42;79.02;98771.28;4893231;29;20045;-61
2022/09/07 16:51:18;;;;;;;4.35;3.25;;;;;;;9.39;79.63;98782.34;4855865;29;20060;-63
2022/09/07 16:53:44;;;;;;;6.70;4.95;;;;;;;9.42;80.48;98781.88;4874454;29;20063;-64
2022/09/07 16:56:11;;;;;;;11.05;7.30;;;;;;;9.45;79.77;98777.94;4875603;29;20566;-62
2022/09/07 16:58:40;;;;;;;10.55;7.03;;;;;;;9.46;79.49;98784.81;4875500;29;20052;-63
2022/09/07 17:01:07;;;;;;;26.67;13.82;;;;;;;9.45;79.86;98791.16;4873939;29;20096;-63
2022/09/07 17:03:34;;;;;;;25.35;11.77;;;;;;;9.44;79.63;98792.19;4882479;29;20045;-64
2022/09/07 17:06:00;;;;;;;23.60;11.50;;;;;;;9.44;79.38;98793.00;4894752;29;20395;-65
2022/09/07 17:08:26;;;;;;;17.02;9.13;;;;;;;9.42;79.28;98794.28;4892744;29;20044;-63
2022/09/07 17:10:58;;;;;;;14.75;9.80;;;;;;;9.36;79.43;98795.28;4893849;29;20083;-64
2022/09/07 17:13:24;;;;;;;7.05;4.45;;;;;;;9.21;80.17;98790.56;4876016;29;20555;-66
2022/09/07 17:15:49;;;;;;;5.53;3.65;;;;;;;9.09;80.21;98786.19;4895069;29;20056;-64
2022/09/07 17:18:15;;;;;;;8.48;5.20;;;;;;;9.04;79.82;98796.66;4894152;29;20059;-62
2022/09/07 17:20:41;;;;;;;6.63;4.68;;;;;;;8.97;80.55;98793.41;4892252;29;20204;-64
2022/09/07 17:23:07;;;;;;;6.32;3.85;;;;;;;8.90;81.57;98795.38;4893897;29;20049;-65
2022/09/07 17:25:32;;;;;;;6.38;4.68;;;;;;;8.84;81.67;98801.63;4891226;29;20041;-63
2022/09/07 17:27:58;;;;;;;7.85;5.68;;;;;;;8.76;81.95;98794.09;4894223;29;20048;-64
2022/09/07 17:30:24;;;;;;;6.18;4.35;;;;;;;8.67;82.16;98795.53;4892316;29;20040;-64
2022/09/07 17:32:50;;;;;;;6.97;5.55;;;;;;;8.60;82.42;98793.06;4887025;29;20048;-63
2022/09/07 17:35:16;;;;;;;8.15;4.53;;;;;;;8.51;82.04;98789.22;4885645;29;20536;-63
2022/09/07 17:37:42;;;;;;;7.20;5.15;;;;;;;8.47;82.85;98793.34;4893893;29;20091;-65
2022/09/07 17:40:08;;;;;;;5.93;4.40;;;;;;;8.40;82.28;98793.50;4896109;29;20139;-64
2022/09/07 17:42:33;;;;;;;6.80;5.30;;;;;;;8.39;82.81;98800.63;4894806;29;20084;-63